createdAt,value
2019-05-12T00:00:18.413Z,6.1
2019-05-12T00:05:50.061Z,6.1
2019-05-12T00:11:22.132Z,6
2019-05-12T00:16:54.069Z,6.1
2019-05-12T00:22:26.081Z,6
2019-05-12T00:27:58.708Z,6.1
2019-05-12T00:33:30.159Z,6.2
2019-05-12T00:39:02.164Z,6.2
2019-05-12T00:44:35.045Z,5.7
2019-05-12T00:50:07.993Z,6
2019-05-12T00:55:39.556Z,5.6
2019-05-12T01:01:11.529Z,5.7
2019-05-12T01:06:43.446Z,5.7
2019-05-12T01:12:17.986Z,5.8
2019-05-12T01:17:47.846Z,5.8
2019-05-12T01:23:23.135Z,6
2019-05-12T01:28:52.168Z,6.6
2019-05-12T01:34:24.872Z,6
2019-05-12T01:39:59.489Z,6
2019-05-12T01:45:29.357Z,5.7
2019-05-12T01:51:01.266Z,5.7
2019-05-12T01:56:33.268Z,5.8
2019-05-12T02:02:05.199Z,5.9
2019-05-12T02:07:38.367Z,5.6
2019-05-12T02:13:09.332Z,5.9
2019-05-12T02:18:41.452Z,6
2019-05-12T02:24:24.169Z,6
2019-05-12T02:29:47.993Z,6.5
2019-05-12T02:35:18.444Z,5.9
2019-05-12T02:40:50.442Z,5.8
2019-05-12T02:46:25.126Z,5.7
2019-05-12T02:51:54.826Z,5.5
2019-05-12T02:57:26.496Z,5.6
2019-05-12T03:02:59.202Z,6.2
2019-05-12T03:08:34.785Z,6.9
2019-05-12T03:14:04.590Z,6
2019-05-12T03:19:37.100Z,6.7
2019-05-12T03:25:16.908Z,6.4
2019-05-12T03:30:47.400Z,6.1
2019-05-12T03:41:47.519Z,5.5
2019-05-12T03:47:20.334Z,5.6
2019-05-12T03:52:56.351Z,5.6
2019-05-12T03:58:25.837Z,5.7
2019-05-12T04:03:58.150Z,5.8
2019-05-12T04:09:30.625Z,5.9
2019-05-12T04:15:05.026Z,5.9
2019-05-12T04:20:36.119Z,5.9
2019-05-12T04:26:12.030Z,5.7
2019-05-12T04:31:39.165Z,5.8
2019-05-12T04:37:11.167Z,6
2019-05-12T04:42:45.107Z,5.6
2019-05-12T04:48:18.300Z,5.7
2019-05-12T04:53:47.279Z,5.5
2019-05-12T04:59:19.345Z,6.1
2019-05-12T05:04:54.355Z,6.4
2019-05-12T05:10:24.894Z,6.9
2019-05-12T05:15:55.684Z,7.1
2019-05-12T05:21:27.980Z,7.4
2019-05-12T05:27:00.961Z,7.9
2019-05-12T05:32:33.869Z,7.7
2019-05-12T05:38:05.202Z,7.5
2019-05-12T05:43:37.535Z,8.1
2019-05-12T05:49:10.042Z,8.7
2019-05-12T05:54:43.962Z,8.5
2019-05-12T06:00:21.205Z,9
2019-05-12T06:05:48.947Z,8.9
2019-05-12T06:11:28.117Z,8.9
2019-05-12T06:16:54.767Z,9.7
2019-05-12T06:22:27.766Z,9.6
2019-05-12T06:28:01.427Z,9.2
2019-05-12T06:33:36.183Z,9
2019-05-12T06:44:40.407Z,8.5
2019-05-12T06:50:14.671Z,8.7
2019-05-12T06:55:47.426Z,8.8
2019-05-12T07:01:20.696Z,9
2019-05-12T07:06:55.883Z,9.1
2019-05-12T07:12:33.437Z,9.7
2019-05-12T07:18:01.474Z,8.9
2019-05-12T07:23:35.204Z,8.7
2019-05-12T07:29:08.757Z,8.7
2019-05-12T07:34:43.719Z,8.8
2019-05-12T07:40:18.883Z,8.9
2019-05-12T07:45:53.762Z,8.8
2019-05-12T07:51:24.126Z,9.1
2019-05-12T07:56:56.445Z,9.2
2019-05-12T08:02:31.830Z,9.3
2019-05-12T08:08:10.605Z,9.4
2019-05-12T08:13:40.757Z,9.5
2019-05-12T08:19:14.731Z,10.7
2019-05-12T08:24:47.951Z,10.5
2019-05-12T08:30:18.833Z,10.2
2019-05-12T08:35:55.154Z,9.8
2019-05-12T08:41:26.963Z,9.6
2019-05-12T08:47:00.366Z,9.1
2019-05-12T08:52:36.935Z,8.2
2019-05-12T08:58:08.406Z,9
2019-05-12T09:03:40.780Z,8.8
2019-05-12T09:09:14.218Z,7.6
2019-05-12T09:14:47.468Z,7.4
2019-05-12T09:20:20.722Z,7.8
2019-05-12T09:25:57.083Z,9
2019-05-12T09:31:29.381Z,10.3
2019-05-12T09:37:03.807Z,10.5
2019-05-12T09:42:35.868Z,10.7
2019-05-12T09:48:10.000Z,10.4
2019-05-12T09:53:50.701Z,10.3
2019-05-12T09:59:22.751Z,10.6
2019-05-12T10:04:56.261Z,11.2
2019-05-12T10:10:28.996Z,11.2
2019-05-12T10:16:04.752Z,11.1
2019-05-12T10:21:35.969Z,11.9
2019-05-12T10:27:09.033Z,12.2
2019-05-12T10:32:43.763Z,12.6
2019-05-12T10:38:18.216Z,12.7
2019-05-12T10:43:54.174Z,12.7
2019-05-12T10:49:27.794Z,12.4
2019-05-12T10:55:04.306Z,12.2
2019-05-12T11:00:36.980Z,12
2019-05-12T11:06:11.465Z,12.2
2019-05-12T11:11:47.049Z,12.2
2019-05-12T11:17:20.558Z,12
2019-05-12T11:22:55.077Z,12.8
2019-05-12T11:28:33.461Z,12.5
2019-05-12T11:34:04.857Z,12.5
2019-05-12T11:39:44.483Z,12.4
2019-05-12T11:45:13.918Z,12.3
2019-05-12T11:50:51.224Z,11.8
2019-05-12T11:56:24.276Z,11.7
2019-05-12T12:01:56.847Z,12.7
2019-05-12T12:07:33.240Z,12.9
2019-05-12T12:13:05.885Z,12.6
2019-05-12T12:18:46.504Z,11.2
2019-05-12T12:24:14.650Z,10.7
2019-05-12T12:29:48.772Z,10.9
2019-05-12T12:35:23.431Z,11.4
2019-05-12T12:40:57.258Z,12.1
2019-05-12T12:46:33.659Z,11.7
2019-05-12T12:52:06.482Z,12.2
2019-05-12T12:57:46.194Z,12.2
2019-05-12T13:03:19.584Z,12
2019-05-12T13:08:50.847Z,11.6
2019-05-12T13:14:28.416Z,11.7
2019-05-12T13:19:59.635Z,12.5
2019-05-12T13:25:38.711Z,11.6
2019-05-12T13:42:19.355Z,11.9
2019-05-12T13:53:29.343Z,12.2
2019-05-12T13:59:04.266Z,11.5
2019-05-12T14:04:37.871Z,10.7
2019-05-12T14:10:13.911Z,10.5
2019-05-12T14:15:45.745Z,10.6
2019-05-12T14:21:19.543Z,10.5
2019-05-12T14:26:53.473Z,10.8
2019-05-12T14:32:26.975Z,11.1
2019-05-12T14:38:00.784Z,9.7
2019-05-12T14:43:34.411Z,9.1
2019-05-12T14:49:07.990Z,9.1
2019-05-12T14:54:43.413Z,9
2019-05-12T15:00:21.157Z,8.8
2019-05-12T15:16:56.890Z,8.5
2019-05-12T15:33:44.050Z,9.2
2019-05-12T15:39:16.865Z,9.4
2019-05-12T15:44:50.225Z,9.5
2019-05-12T15:50:26.047Z,9.6
2019-05-12T15:55:57.160Z,9.8
2019-05-12T16:01:30.756Z,9.8
2019-05-12T16:07:04.375Z,10
2019-05-12T16:12:37.776Z,10.1
2019-05-12T16:18:11.338Z,10.1
2019-05-12T16:23:44.894Z,10.1
2019-05-12T16:29:18.499Z,10.4
2019-05-12T16:34:54.095Z,10.5
2019-05-12T16:40:26.173Z,10.6
2019-05-12T16:45:59.970Z,10.6
2019-05-12T16:51:33.766Z,10.7
2019-05-12T16:57:11.753Z,10.6
2019-05-12T17:02:42.145Z,10.4
2019-05-12T17:08:14.702Z,9.9
2019-05-12T17:13:56.508Z,9.9
2019-05-12T17:19:23.571Z,10
2019-05-12T17:24:55.168Z,10
2019-05-12T17:30:28.600Z,10.1
2019-05-12T17:36:11.081Z,9.8
2019-05-12T17:41:40.198Z,9.6
2019-05-12T17:47:12.778Z,9.6
2019-05-12T17:52:44.776Z,9.4
2019-05-12T17:58:15.690Z,8.9
2019-05-12T18:03:50.633Z,9.1
2019-05-12T18:09:23.594Z,9.2
2019-05-12T18:14:55.704Z,9.7
2019-05-12T18:20:31.056Z,9.6
2019-05-12T18:26:11.250Z,9.7
2019-05-12T18:31:35.680Z,9.7
2019-05-12T18:37:09.066Z,9.6
2019-05-12T18:42:42.491Z,9.5
2019-05-12T18:48:21.925Z,8.9
2019-05-12T18:53:49.143Z,9
2019-05-12T18:59:22.490Z,9.1
2019-05-12T19:04:55.825Z,9.1
2019-05-12T19:10:29.146Z,9
2019-05-12T19:16:06.275Z,8.9
2019-05-12T19:21:35.752Z,8.9
2019-05-12T19:27:10.205Z,8.8
2019-05-12T19:32:44.458Z,8.8
2019-05-12T19:38:15.708Z,8.5
2019-05-12T19:43:49.585Z,8.4
2019-05-12T19:49:25.767Z,8.4
2019-05-12T19:54:55.337Z,8.3
2019-05-12T20:00:28.415Z,8.2
2019-05-12T20:06:01.704Z,8.4
2019-05-12T20:11:34.819Z,8.5
2019-05-12T20:17:08.057Z,7.9
2019-05-12T20:22:45.719Z,7.6
2019-05-12T20:28:18.859Z,7.5
2019-05-12T20:33:55.440Z,7.5
2019-05-12T20:39:24.917Z,7.5
2019-05-12T20:45:02.465Z,7.9
2019-05-12T20:50:33.949Z,7.9
2019-05-12T20:56:03.851Z,8
2019-05-12T21:01:36.838Z,8
2019-05-12T21:07:13.757Z,8
2019-05-12T21:12:46.057Z,8
2019-05-12T21:18:16.126Z,8.1
2019-05-12T21:23:53.672Z,8
2019-05-12T21:29:25.300Z,8
2019-05-12T21:34:57.666Z,8.1
2019-05-12T21:40:30.508Z,8
2019-05-12T21:46:07.552Z,7.8
2019-05-12T21:51:38.798Z,7.6
2019-05-12T21:57:11.894Z,7.7
2019-05-12T22:02:45.018Z,7.9
2019-05-12T22:08:21.948Z,7.9
2019-05-12T22:13:55.723Z,7.8
2019-05-12T22:19:24.210Z,7.7
2019-05-12T22:24:57.345Z,7.6
2019-05-12T22:30:30.488Z,7.4
2019-05-12T22:36:09.859Z,7.5
2019-05-12T22:41:41.228Z,7.6
2019-05-12T22:47:17.307Z,7.6
2019-05-12T22:52:45.054Z,7.6
2019-05-12T22:58:18.116Z,7.7
2019-05-12T23:03:51.411Z,7.6
2019-05-12T23:09:25.750Z,7.5
2019-05-12T23:15:02.766Z,7.5
2019-05-12T23:20:30.873Z,7.3
2019-05-12T23:26:02.019Z,7.3
2019-05-12T23:31:34.737Z,6.9
2019-05-12T23:37:07.754Z,6.8
2019-05-12T23:42:40.803Z,6.8
2019-05-12T23:48:14.334Z,6.8
2019-05-12T23:53:46.865Z,6.6
2019-05-12T23:59:19.874Z,6.3
